Time;durP1;ratioP1;P1;durP2;ratioP2;P2;SDS_P1;SDS_P2;PMS_P1;PMS_P2;Temp;Humidity;BMP_temperature;BMP_pressure;BME280_temperature;BME280_humidity;BME280_pressure;Samples;Min_cycle;Max_cycle;Signal;HPM_P1;HPM_P2
2022/10/16 00:00:43;;;;;;;;;;;20.50;61.00;;;;;;5036888;28;19948;-73
2022/10/16 00:03:09;;;;;;;;;;;20.60;61.00;;;;;;5052750;28;20312;-73
2022/10/16 00:05:38;;;;;;;;;;;20.60;61.10;;;;;;5033300;28;19939;-73
2022/10/16 00:08:03;;;;;;;;;;;20.60;61.00;;;;;;5022328;28;19920;-73
2022/10/16 00:10:29;;;;;;;;;;;20.60;60.90;;;;;;5014725;28;19913;-73
2022/10/16 00:12:54;;;;;;;;;;;20.60;60.80;;;;;;5014805;28;19910;-73
2022/10/16 00:15:20;;;;;;;;;;;20.60;60.80;;;;;;5013930;28;19916;-73
2022/10/16 00:17:45;;;;;;;;;;;20.60;60.80;;;;;;5016547;28;20309;-73
2022/10/16 00:20:11;;;;;;;;;;;20.60;60.70;;;;;;5013835;28;19913;-73
2022/10/16 00:22:36;;;;;;;;;;;20.70;60.80;;;;;;5013826;28;19952;-73
2022/10/16 00:25:01;;;;;;;;;;;20.70;60.70;;;;;;5012530;28;19914;-73
2022/10/16 00:27:27;;;;;;;;;;;20.60;60.60;;;;;;5020015;28;20404;-73
2022/10/16 00:29:52;;;;;;;;;;;20.60;60.60;;;;;;5012019;28;19980;-73
2022/10/16 00:32:18;;;;;;;;;;;20.60;60.70;;;;;;5011932;28;19928;-73
2022/10/16 00:34:44;;;;;;;;;;;20.60;60.50;;;;;;5013839;28;20012;-73
2022/10/16 00:37:09;;;;;;;;;;;20.70;60.50;;;;;;5014333;28;20429;-74
2022/10/16 00:39:35;;;;;;;;;;;20.70;60.40;;;;;;5013939;28;19932;-73
2022/10/16 00:42:00;;;;;;;;;;;20.70;60.40;;;;;;5013638;28;19975;-73
2022/10/16 00:44:43;;;;;;;;;;;20.70;60.30;;;;;;5014342;28;19914;-73
2022/10/16 00:47:10;;;;;;;;;;;20.70;61.10;;;;;;5022850;28;19917;-73
2022/10/16 00:49:35;;;;;;;;;;;20.60;60.40;;;;;;5024599;28;19917;-73
2022/10/16 00:52:00;;;;;;;;;;;20.60;60.40;;;;;;5014167;28;19909;-73
2022/10/16 00:54:27;;;;;;;;;;;20.70;60.30;;;;;;5013862;28;19940;-73
2022/10/16 00:56:52;;;;;;;;;;;20.70;60.30;;;;;;4996108;28;20274;-73
2022/10/16 00:59:28;;;;;;;;;;;20.60;60.20;;;;;;5013386;28;19959;-73
2022/10/16 01:01:54;;;;;;;;;;;20.70;60.30;;;;;;5013806;28;19914;-73
2022/10/16 01:04:19;;;;;;;;;;;20.70;60.10;;;;;;5010952;28;20276;-73
2022/10/16 01:07:00;;;;;;;;;;;20.60;60.00;;;;;;5052466;28;19942;-73
2022/10/16 01:09:44;;;;;;;;;;;20.70;60.00;;;;;;5035639;28;20063;-73
2022/10/16 01:12:10;;;;;;;;;;;20.70;60.10;;;;;;5053476;28;19909;-73
2022/10/16 01:14:40;;;;;;;;;;;20.70;60.10;;;;;;5035707;28;20490;-73
2022/10/16 01:17:32;;;;;;;;;;;20.70;60.10;;;;;;5047251;28;20435;-73
2022/10/16 01:19:58;;;;;;;;;;;20.60;60.00;;;;;;5038505;28;19912;-73
2022/10/16 01:22:24;;;;;;;;;;;20.60;60.10;;;;;;5053207;28;20269;-73
2022/10/16 01:24:49;;;;;;;;;;;20.60;60.10;;;;;;5035232;28;19909;-73
2022/10/16 01:27:15;;;;;;;;;;;20.50;60.00;;;;;;5051877;28;19936;-73
2022/10/16 01:29:42;;;;;;;;;;;20.50;60.10;;;;;;5053019;28;19920;-73
2022/10/16 01:32:19;;;;;;;;;;;20.50;60.10;;;;;;5033388;28;19913;-73
2022/10/16 01:34:47;;;;;;;;;;;20.50;60.20;;;;;;5034099;28;19917;-73
2022/10/16 01:37:14;;;;;;;;;;;20.50;60.10;;;;;;5051817;28;19920;-74
2022/10/16 01:39:39;;;;;;;;;;;20.50;60.10;;;;;;5053461;28;19913;-73
2022/10/16 01:42:09;;;;;;;;;;;20.50;60.10;;;;;;5035090;28;19916;-73
2022/10/16 01:44:36;;;;;;;;;;;20.50;60.00;;;;;;5033320;28;19928;-73
2022/10/16 01:47:01;;;;;;;;;;;20.50;59.90;;;;;;5034697;28;19908;-73
2022/10/16 01:49:27;;;;;;;;;;;20.50;59.90;;;;;;5058936;28;19973;-73
2022/10/16 01:51:54;;;;;;;;;;;20.50;59.90;;;;;;5039232;28;19913;-73
2022/10/16 01:54:20;;;;;;;;;;;20.60;60.00;;;;;;5032546;28;19917;-73
2022/10/16 01:56:45;;;;;;;;;;;20.50;59.80;;;;;;5051862;28;19982;-73
2022/10/16 01:59:12;;;;;;;;;;;20.50;59.80;;;;;;5033356;28;19919;-73
2022/10/16 02:01:38;;;;;;;;;;;20.50;59.90;;;;;;5034298;28;20420;-73
2022/10/16 02:04:07;;;;;;;;;;;20.50;59.90;;;;;;5034759;28;19913;-73
2022/10/16 02:06:32;;;;;;;;;;;20.50;60.00;;;;;;5032826;28;19920;-73
2022/10/16 02:08:59;;;;;;;;;;;20.50;59.90;;;;;;5008408;28;23099;-73
2022/10/16 02:11:24;;;;;;;;;;;20.50;59.90;;;;;;5052431;28;20015;-73
2022/10/16 02:13:51;;;;;;;;;;;20.50;59.80;;;;;;5051170;28;19916;-73
2022/10/16 02:16:17;;;;;;;;;;;20.50;59.90;;;;;;5025163;28;19923;-73
2022/10/16 02:18:42;;;;;;;;;;;20.40;59.80;;;;;;5033343;28;20007;-73
2022/10/16 02:21:24;;;;;;;;;;;20.40;59.90;;;;;;5051233;28;20372;-73
2022/10/16 02:23:52;;;;;;;;;;;20.50;59.80;;;;;;5014128;28;19961;-73
2022/10/16 02:26:20;;;;;;;;;;;20.50;59.70;;;;;;5050744;28;20353;-73
2022/10/16 02:28:46;;;;;;;;;;;20.40;59.80;;;;;;5062972;28;20594;-73
2022/10/16 02:31:12;;;;;;;;;;;20.40;59.80;;;;;;5051895;28;19920;-73
2022/10/16 02:33:38;;;;;;;;;;;20.50;59.70;;;;;;5038926;28;19913;-73
2022/10/16 02:36:04;;;;;;;;;;;20.40;59.60;;;;;;5038342;28;19912;-73
2022/10/16 02:38:30;;;;;;;;;;;20.50;59.70;;;;;;5033338;28;20391;-73
2022/10/16 02:40:55;;;;;;;;;;;20.50;59.80;;;;;;5033816;28;20004;-73
2022/10/16 02:43:21;;;;;;;;;;;20.50;59.70;;;;;;5060314;28;20023;-73
2022/10/16 02:45:46;;;;;;;;;;;20.50;59.70;;;;;;5052323;28;19962;-73
2022/10/16 02:48:12;;;;;;;;;;;20.40;59.60;;;;;;5058783;28;20021;-73
2022/10/16 02:50:37;;;;;;;;;;;20.40;59.60;;;;;;5064423;28;19916;-73
2022/10/16 02:53:02;;;;;;;;;;;20.40;59.60;;;;;;5065098;28;20376;-73
2022/10/16 02:55:28;;;;;;;;;;;20.40;59.50;;;;;;5061185;28;20370;-73
2022/10/16 02:57:53;;;;;;;;;;;20.50;59.50;;;;;;5040864;28;19913;-73
2022/10/16 03:00:19;;;;;;;;;;;20.50;59.50;;;;;;5038414;28;19912;-73
2022/10/16 03:02:44;;;;;;;;;;;20.50;59.40;;;;;;5041282;28;20368;-73
2022/10/16 03:05:10;;;;;;;;;;;20.50;59.20;;;;;;5059305;28;19925;-73
2022/10/16 03:07:35;;;;;;;;;;;20.50;59.20;;;;;;5049521;28;20407;-73
2022/10/16 03:10:01;;;;;;;;;;;20.50;59.10;;;;;;5057206;28;19960;-73
2022/10/16 03:12:27;;;;;;;;;;;20.50;59.10;;;;;;5038449;28;19913;-73
2022/10/16 03:14:52;;;;;;;;;;;20.50;59.20;;;;;;5064321;28;19913;-73
2022/10/16 03:17:18;;;;;;;;;;;20.60;59.20;;;;;;5064814;28;19913;-73
2022/10/16 03:19:43;;;;;;;;;;;20.50;59.10;;;;;;5056962;28;19917;-73
2022/10/16 03:22:08;;;;;;;;;;;20.50;59.00;;;;;;5036602;28;19925;-74
2022/10/16 03:24:34;;;;;;;;;;;20.60;59.00;;;;;;5027369;28;20368;-72
2022/10/16 03:27:00;;;;;;;;;;;20.60;59.00;;;;;;5048524;28;20019;-73
2022/10/16 03:29:25;;;;;;;;;;;20.60;58.80;;;;;;5053207;28;19964;-73
2022/10/16 03:31:51;;;;;;;;;;;20.60;58.80;;;;;;5039013;28;19966;-73
2022/10/16 03:34:16;;;;;;;;;;;20.60;58.70;;;;;;5064755;28;19912;-73
2022/10/16 03:36:42;;;;;;;;;;;20.60;58.80;;;;;;5030150;28;20000;-72
2022/10/16 03:39:07;;;;;;;;;;;20.50;58.80;;;;;;5037267;28;20004;-73
2022/10/16 03:41:33;;;;;;;;;;;20.50;58.80;;;;;;5055123;28;20634;-73
2022/10/16 03:43:58;;;;;;;;;;;20.60;58.80;;;;;;5060929;28;20439;-73
2022/10/16 03:46:23;;;;;;;;;;;20.60;58.70;;;;;;5040730;28;20371;-73
2022/10/16 03:48:49;;;;;;;;;;;20.60;58.70;;;;;;5041247;28;19935;-73
2022/10/16 03:51:14;;;;;;;;;;;20.60;58.70;;;;;;5057036;28;20050;-73
2022/10/16 03:53:40;;;;;;;;;;;20.50;58.60;;;;;;5020531;28;19951;-73
2022/10/16 03:56:05;;;;;;;;;;;20.50;58.70;;;;;;5041395;28;19924;-73
2022/10/16 03:58:31;;;;;;;;;;;20.50;58.80;;;;;;5035780;28;19917;-73
2022/10/16 04:00:56;;;;;;;;;;;20.40;58.70;;;;;;5057713;28;19912;-73
2022/10/16 04:03:22;;;;;;;;;;;20.40;58.80;;;;;;5057742;28;19979;-73
2022/10/16 04:05:48;;;;;;;;;;;20.40;58.80;;;;;;5029150;28;19921;-73
2022/10/16 04:08:13;;;;;;;;;;;20.40;58.70;;;;;;5016328;28;19923;-73
2022/10/16 04:10:39;;;;;;;;;;;20.50;58.70;;;;;;5013382;28;19922;-73
2022/10/16 04:13:04;;;;;;;;;;;20.40;58.70;;;;;;5018602;28;19909;-73
2022/10/16 04:15:30;;;;;;;;;;;20.40;58.60;;;;;;5028618;28;19913;-73
2022/10/16 04:17:55;;;;;;;;;;;20.40;58.70;;;;;;5029707;28;19913;-73
2022/10/16 04:20:21;;;;;;;;;;;20.40;58.70;;;;;;5028821;28;19913;-73
2022/10/16 04:22:46;;;;;;;;;;;20.40;58.80;;;;;;5029761;28;19923;-74
2022/10/16 04:25:12;;;;;;;;;;;20.40;58.70;;;;;;5023373;28;19913;-73
2022/10/16 04:27:37;;;;;;;;;;;20.40;58.90;;;;;;5032330;28;19920;-73
2022/10/16 04:30:03;;;;;;;;;;;20.30;58.90;;;;;;5028659;28;19918;-73
2022/10/16 04:32:28;;;;;;;;;;;20.30;58.70;;;;;;5011912;28;19918;-73
2022/10/16 04:34:54;;;;;;;;;;;20.30;58.80;;;;;;5016446;28;19929;-73
2022/10/16 04:37:22;;;;;;;;;;;20.30;58.90;;;;;;5014437;28;19909;-74
2022/10/16 04:39:48;;;;;;;;;;;20.30;58.90;;;;;;5025948;28;20285;-73
2022/10/16 04:42:13;;;;;;;;;;;20.30;58.80;;;;;;5013083;28;19914;-73
2022/10/16 04:44:39;;;;;;;;;;;20.30;58.80;;;;;;5030480;28;20111;-73
2022/10/16 04:47:05;;;;;;;;;;;20.40;58.80;;;;;;5025956;28;20008;-73
2022/10/16 04:49:30;;;;;;;;;;;20.40;58.70;;;;;;5031898;28;19917;-73
2022/10/16 04:51:55;;;;;;;;;;;20.40;58.60;;;;;;5032711;28;20022;-73
2022/10/16 04:54:21;;;;;;;;;;;20.40;58.60;;;;;;4999625;28;19913;-73
2022/10/16 04:56:47;;;;;;;;;;;20.40;58.60;;;;;;5015883;28;19920;-73
2022/10/16 04:59:16;;;;;;;;;;;20.40;58.40;;;;;;5017775;28;19959;-74
2022/10/16 05:01:41;;;;;;;;;;;20.40;58.40;;;;;;5019522;28;19914;-73
2022/10/16 05:04:07;;;;;;;;;;;20.40;58.40;;;;;;5008726;28;20357;-73
2022/10/16 05:06:32;;;;;;;;;;;20.40;58.50;;;;;;5049114;28;20376;-73
2022/10/16 05:08:58;;;;;;;;;;;20.40;58.40;;;;;;5052593;28;19943;-73
2022/10/16 05:11:23;;;;;;;;;;;20.40;58.40;;;;;;5052764;28;19923;-73
2022/10/16 05:13:49;;;;;;;;;;;20.40;58.50;;;;;;5053076;28;19913;-73
2022/10/16 05:16:14;;;;;;;;;;;20.40;58.40;;;;;;5054928;28;19913;-73
2022/10/16 05:18:40;;;;;;;;;;;20.40;58.40;;;;;;5053855;28;19960;-73
2022/10/16 05:21:05;;;;;;;;;;;20.40;58.90;;;;;;5031871;28;19913;-73
2022/10/16 05:23:31;;;;;;;;;;;20.40;58.30;;;;;;5042112;28;20007;-73
2022/10/16 05:25:57;;;;;;;;;;;20.40;58.30;;;;;;5063893;28;20341;-73
2022/10/16 05:28:26;;;;;;;;;;;20.40;58.30;;;;;;5032375;28;19917;-73
2022/10/16 05:30:52;;;;;;;;;;;20.40;58.40;;;;;;5017156;28;19928;-73
2022/10/16 05:33:21;;;;;;;;;;;20.40;58.30;;;;;;5064768;28;20326;-73
2022/10/16 05:35:46;;;;;;;;;;;20.40;58.30;;;;;;5043532;28;20058;-73
2022/10/16 05:38:12;;;;;;;;;;;20.40;58.20;;;;;;5034241;28;20004;-73
2022/10/16 05:40:37;;;;;;;;;;;20.40;58.20;;;;;;5054608;28;19909;-74
2022/10/16 05:43:03;;;;;;;;;;;20.40;58.10;;;;;;5052130;28;19919;-73
2022/10/16 05:45:28;;;;;;;;;;;20.40;58.10;;;;;;5035215;28;20395;-73
2022/10/16 05:47:54;;;;;;;;;;;20.40;58.20;;;;;;5042474;28;20121;-73
2022/10/16 05:50:19;;;;;;;;;;;20.40;58.20;;;;;;5049668;28;20288;-74
2022/10/16 05:52:45;;;;;;;;;;;20.40;58.20;;;;;;5053605;28;19934;-74
2022/10/16 05:55:10;;;;;;;;;;;20.40;58.10;;;;;;5064950;28;19912;-73
2022/10/16 05:57:35;;;;;;;;;;;20.40;58.10;;;;;;5043903;28;20390;-73
2022/10/16 06:00:01;;;;;;;;;;;20.40;58.20;;;;;;5037632;28;20296;-73
2022/10/16 06:02:26;;;;;;;;;;;20.40;58.30;;;;;;5054817;28;20299;-73
2022/10/16 06:04:53;;;;;;;;;;;20.40;58.20;;;;;;5036502;28;19924;-73
2022/10/16 06:07:19;;;;;;;;;;;20.40;58.30;;;;;;5034703;28;19924;-74
2022/10/16 06:09:47;;;;;;;;;;;20.30;58.10;;;;;;5058409;28;19927;-74
2022/10/16 06:12:12;;;;;;;;;;;20.30;58.10;;;;;;5065737;28;19913;-73
2022/10/16 06:14:38;;;;;;;;;;;20.30;58.10;;;;;;5061263;28;19919;-73
2022/10/16 06:17:03;;;;;;;;;;;20.30;58.20;;;;;;5054142;28;20360;-73
2022/10/16 06:19:29;;;;;;;;;;;20.30;58.10;;;;;;5039588;28;20334;-74
2022/10/16 06:21:54;;;;;;;;;;;20.30;58.10;;;;;;5034061;28;19920;-73
2022/10/16 06:24:20;;;;;;;;;;;20.30;58.10;;;;;;5029678;28;19912;-73
2022/10/16 06:26:45;;;;;;;;;;;20.30;58.10;;;;;;5028558;28;20387;-74
2022/10/16 06:29:11;;;;;;;;;;;20.30;58.20;;;;;;5033906;28;19962;-73
2022/10/16 06:31:36;;;;;;;;;;;20.30;58.10;;;;;;5051698;28;20333;-73
2022/10/16 06:34:03;;;;;;;;;;;20.30;58.10;;;;;;5054096;28;19913;-73
2022/10/16 06:36:28;;;;;;;;;;;20.30;58.00;;;;;;5051503;28;20395;-73
2022/10/16 06:38:54;;;;;;;;;;;20.30;58.00;;;;;;5052013;28;19917;-73
2022/10/16 06:41:20;;;;;;;;;;;20.30;58.10;;;;;;5050480;28;20360;-73
2022/10/16 06:43:45;;;;;;;;;;;20.30;58.10;;;;;;5036454;28;20355;-73
2022/10/16 06:46:11;;;;;;;;;;;20.30;58.10;;;;;;5033825;28;19908;-73
2022/10/16 06:48:37;;;;;;;;;;;20.30;58.60;;;;;;5032870;28;20019;-73
2022/10/16 06:51:03;;;;;;;;;;;20.30;58.00;;;;;;5052078;28;19919;-73
2022/10/16 06:53:29;;;;;;;;;;;20.30;57.90;;;;;;5034439;28;19912;-73
2022/10/16 06:55:54;;;;;;;;;;;20.30;57.90;;;;;;5037123;28;19913;-73
2022/10/16 06:58:20;;;;;;;;;;;20.30;57.80;;;;;;5021724;28;19959;-73
2022/10/16 07:00:45;;;;;;;;;;;20.40;57.80;;;;;;5037126;28;20497;-74
2022/10/16 07:03:11;;;;;;;;;;;20.30;57.90;;;;;;5037703;28;20325;-73
2022/10/16 07:05:39;;;;;;;;;;;20.30;58.00;;;;;;5037656;28;19924;-73
2022/10/16 07:08:05;;;;;;;;;;;20.30;57.90;;;;;;5026423;28;19920;-73
2022/10/16 07:10:31;;;;;;;;;;;20.30;57.90;;;;;;5034988;28;19916;-73
2022/10/16 07:12:56;;;;;;;;;;;20.30;58.00;;;;;;5038656;28;19952;-73
2022/10/16 07:15:21;;;;;;;;;;;20.20;58.10;;;;;;5055726;28;19909;-73
2022/10/16 07:17:47;;;;;;;;;;;20.20;58.00;;;;;;5055569;28;19961;-73
2022/10/16 07:20:12;;;;;;;;;;;20.30;58.10;;;;;;5054144;28;19913;-73
2022/10/16 07:22:38;;;;;;;;;;;20.30;58.10;;;;;;5053521;28;20071;-73
2022/10/16 07:25:03;;;;;;;;;;;20.30;58.00;;;;;;5034299;28;19917;-73
2022/10/16 07:27:29;;;;;;;;;;;20.30;58.10;;;;;;5055606;28;19913;-73
2022/10/16 07:29:54;;;;;;;;;;;20.30;58.10;;;;;;5036619;28;19999;-73
2022/10/16 07:32:20;;;;;;;;;;;20.30;58.10;;;;;;5055282;28;20469;-73
2022/10/16 07:34:45;;;;;;;;;;;20.20;58.10;;;;;;5053583;28;20301;-73
2022/10/16 07:37:11;;;;;;;;;;;20.20;58.10;;;;;;5055154;28;20291;-73
2022/10/16 07:39:36;;;;;;;;;;;20.20;58.30;;;;;;5053837;28;20353;-73
2022/10/16 07:42:02;;;;;;;;;;;20.20;58.10;;;;;;5050342;28;19913;-73
2022/10/16 07:44:27;;;;;;;;;;;20.30;58.10;;;;;;5052689;28;19912;-74
2022/10/16 07:46:52;;;;;;;;;;;20.30;58.20;;;;;;5054076;28;19912;-74
2022/10/16 07:49:18;;;;;;;;;;;20.30;58.30;;;;;;5054329;28;20065;-73
2022/10/16 07:51:43;;;;;;;;;;;20.30;58.10;;;;;;5036729;28;19920;-73
2022/10/16 07:54:09;;;;;;;;;;;20.30;58.10;;;;;;5036489;28;19913;-73
2022/10/16 07:56:34;;;;;;;;;;;20.30;58.10;;;;;;5037125;28;19913;-73
2022/10/16 07:59:00;;;;;;;;;;;20.30;58.30;;;;;;5037096;28;19959;-73
2022/10/16 08:01:25;;;;;;;;;;;20.20;58.30;;;;;;5036697;28;19916;-74
2022/10/16 08:03:51;;;;;;;;;;;20.20;58.50;;;;;;5036152;28;19913;-73
2022/10/16 08:06:17;;;;;;;;;;;20.20;58.50;;;;;;5030465;28;19925;-74
2022/10/16 08:08:42;;;;;;;;;;;20.20;58.40;;;;;;5013929;28;19910;-73
2022/10/16 08:11:08;;;;;;;;;;;20.20;58.60;;;;;;5014080;28;19920;-74
2022/10/16 08:13:33;;;;;;;;;;;20.20;58.50;;;;;;5012598;28;19920;-74
2022/10/16 08:15:59;;;;;;;;;;;20.20;58.40;;;;;;5014175;28;19914;-74
2022/10/16 08:18:24;;;;;;;;;;;20.20;58.60;;;;;;5013479;28;20365;-73
2022/10/16 08:20:57;;;;;;;;;;;20.20;58.50;;;;;;5017861;28;20008;-73
2022/10/16 08:23:22;;;;;;;;;;;20.30;58.60;;;;;;5013693;28;19916;-74
2022/10/16 08:25:48;;;;;;;;;;;20.20;58.60;;;;;;5013060;28;19917;-73
2022/10/16 08:28:13;;;;;;;;;;;20.20;58.70;;;;;;5014643;28;20289;-73
2022/10/16 08:30:39;;;;;;;;;;;20.20;58.80;;;;;;5027470;28;19921;-73
2022/10/16 08:33:05;;;;;;;;;;;20.30;58.80;;;;;;5013613;28;19953;-73
2022/10/16 08:35:31;;;;;;;;;;;20.20;58.80;;;;;;5017191;28;19913;-73
2022/10/16 08:37:56;;;;;;;;;;;20.30;59.00;;;;;;4998037;28;19929;-73
2022/10/16 08:40:26;;;;;;;;;;;20.30;59.00;;;;;;5017669;28;20007;-73
2022/10/16 08:43:14;;;;;;;;;;;20.20;59.10;;;;;;5030649;28;19996;-73
2022/10/16 08:45:39;;;;;;;;;;;20.20;59.20;;;;;;5015559;28;19917;-74
2022/10/16 08:48:08;;;;;;;;;;;20.20;59.30;;;;;;5011993;28;19971;-73
2022/10/16 08:50:35;;;;;;;;;;;20.30;59.40;;;;;;5011886;28;19921;-73
2022/10/16 08:53:01;;;;;;;;;;;20.30;59.30;;;;;;5012234;28;19913;-73
2022/10/16 08:55:46;;;;;;;;;;;20.40;59.40;;;;;;5012955;28;19913;-74
2022/10/16 08:58:11;;;;;;;;;;;20.30;59.50;;;;;;5014907;28;19963;-74
2022/10/16 09:00:37;;;;;;;;;;;20.40;59.60;;;;;;5013862;28;19948;-73
2022/10/16 09:03:14;;;;;;;;;;;20.40;59.60;;;;;;5011662;28;19909;-73
2022/10/16 09:05:40;;;;;;;;;;;20.40;59.60;;;;;;5003634;28;19987;-74
2022/10/16 09:08:08;;;;;;;;;;;20.40;59.70;;;;;;5021800;28;20375;-74
2022/10/16 09:10:54;;;;;;;;;;;20.40;59.80;;;;;;5027356;28;19964;-73
2022/10/16 09:13:28;;;;;;;;;;;20.40;60.00;;;;;;5031374;28;19923;-73
2022/10/16 09:15:57;;;;;;;;;;;20.40;60.00;;;;;;5033375;28;19913;-73
2022/10/16 09:18:30;;;;;;;;;;;20.40;60.00;;;;;;5032594;28;19916;-73
2022/10/16 09:21:15;;;;;;;;;;;20.40;60.00;;;;;;5015407;28;19909;-73
2022/10/16 09:23:41;;;;;;;;;;;20.40;60.00;;;;;;5032225;28;19932;-73
2022/10/16 09:26:09;;;;;;;;;;;20.40;60.00;;;;;;5030213;28;19917;-73
2022/10/16 09:28:35;;;;;;;;;;;20.40;60.10;;;;;;5029866;28;20289;-74
2022/10/16 09:31:00;;;;;;;;;;;20.40;60.10;;;;;;5030851;28;19917;-73
2022/10/16 09:33:28;;;;;;;;;;;20.40;60.10;;;;;;5031946;28;20092;-73
2022/10/16 09:35:54;;;;;;;;;;;20.40;60.20;;;;;;5030888;28;20207;-74
2022/10/16 09:38:23;;;;;;;;;;;20.40;60.10;;;;;;5030800;28;20345;-74
2022/10/16 09:40:48;;;;;;;;;;;20.40;60.00;;;;;;5030593;28;19948;-74
2022/10/16 09:43:21;;;;;;;;;;;20.30;60.40;;;;;;5031596;28;20341;-75
2022/10/16 09:46:00;;;;;;;;;;;20.30;60.60;;;;;;5031635;28;19999;-74
2022/10/16 09:48:39;;;;;;;;;;;20.20;60.70;;;;;;5031263;28;20019;-75
2022/10/16 09:51:05;;;;;;;;;;;20.20;60.70;;;;;;5031540;28;19975;-74
2022/10/16 09:53:41;;;;;;;;;;;20.20;61.00;;;;;;5030842;28;20005;-75
2022/10/16 09:56:07;;;;;;;;;;;20.20;60.90;;;;;;5032350;28;19967;-75
2022/10/16 09:58:33;;;;;;;;;;;20.10;60.90;;;;;;5032676;28;19909;-75
2022/10/16 10:00:58;;;;;;;;;;;20.10;60.90;;;;;;5031410;28;20443;-75
2022/10/16 10:03:52;;;;;;;;;;;20.10;61.00;;;;;;5030849;28;19913;-74
2022/10/16 10:06:25;;;;;;;;;;;20.10;61.00;;;;;;5047465;28;19920;-74
2022/10/16 10:08:57;;;;;;;;;;;20.20;61.00;;;;;;5052479;28;19917;-74
2022/10/16 10:11:39;;;;;;;;;;;20.20;60.90;;;;;;5017831;28;20397;-74
2022/10/16 10:14:08;;;;;;;;;;;20.20;61.00;;;;;;5034595;28;19999;-74
2022/10/16 10:16:34;;;;;;;;;;;20.20;61.20;;;;;;5034319;28;20453;-74
2022/10/16 10:18:59;;;;;;;;;;;20.20;61.10;;;;;;5031156;28;19913;-74
2022/10/16 10:21:25;;;;;;;;;;;20.10;61.10;;;;;;5032281;28;19909;-74
2022/10/16 10:23:57;;;;;;;;;;;20.20;61.10;;;;;;5032466;28;20293;-74
2022/10/16 10:26:23;;;;;;;;;;;20.20;60.90;;;;;;5014437;28;20000;-74
2022/10/16 10:29:23;;;;;;;;;;;20.20;61.00;;;;;;5014314;28;19917;-74
2022/10/16 10:31:54;;;;;;;;;;;20.20;61.10;;;;;;4978313;28;20279;-74
2022/10/16 10:34:49;;;;;;;;;;;20.20;61.00;;;;;;5014574;28;19913;-74
2022/10/16 10:37:23;;;;;;;;;;;20.30;61.20;;;;;;5010840;28;19909;-74
2022/10/16 10:39:54;;;;;;;;;;;20.20;61.10;;;;;;5032288;28;19916;-75
2022/10/16 10:42:36;;;;;;;;;;;20.30;61.20;;;;;;5034404;28;20292;-74
2022/10/16 10:45:16;;;;;;;;;;;20.20;61.00;;;;;;5034275;28;20091;-74
2022/10/16 10:47:45;;;;;;;;;;;20.30;61.10;;;;;;5033661;28;20280;-74
2022/10/16 10:50:10;;;;;;;;;;;20.30;61.10;;;;;;5034154;28;20010;-74
2022/10/16 10:52:50;;;;;;;;;;;20.30;61.10;;;;;;5052017;28;19944;-74
2022/10/16 10:55:20;;;;;;;;;;;20.30;61.10;;;;;;5040535;28;19908;-75
2022/10/16 10:57:45;;;;;;;;;;;20.30;61.10;;;;;;5034361;28;20376;-75
2022/10/16 11:00:20;;;;;;;;;;;20.30;60.90;;;;;;5032152;28;19913;-75
2022/10/16 11:02:55;;;;;;;;;;;20.30;60.90;;;;;;5013980;28;19909;-74
2022/10/16 11:05:27;;;;;;;;;;;20.30;60.70;;;;;;5014077;28;20407;-74
2022/10/16 11:07:55;;;;;;;;;;;20.30;60.80;;;;;;5034272;28;19940;-75
2022/10/16 11:10:21;;;;;;;;;;;20.30;60.70;;;;;;5033603;28;20011;-74
2022/10/16 11:12:48;;;;;;;;;;;20.30;60.90;;;;;;5033988;28;19987;-74
2022/10/16 11:15:20;;;;;;;;;;;20.30;60.80;;;;;;5033945;28;19913;-75
2022/10/16 11:17:55;;;;;;;;;;;20.30;60.70;;;;;;5033571;28;19920;-74
2022/10/16 11:20:31;;;;;;;;;;;20.40;60.60;;;;;;5033850;28;20376;-74
2022/10/16 11:23:20;;;;;;;;;;;20.40;60.60;;;;;;5033853;28;19956;-75
2022/10/16 11:25:45;;;;;;;;;;;20.40;60.60;;;;;;5022549;28;19909;-74
2022/10/16 11:28:11;;;;;;;;;;;20.40;60.60;;;;;;5051604;28;20380;-74
2022/10/16 11:30:44;;;;;;;;;;;20.50;60.40;;;;;;5038008;28;19971;-73
2022/10/16 11:33:18;;;;;;;;;;;20.40;60.40;;;;;;5013737;28;19909;-74
2022/10/16 11:35:54;;;;;;;;;;;20.40;60.30;;;;;;5013917;28;19920;-75
2022/10/16 11:38:23;;;;;;;;;;;20.40;60.40;;;;;;5020068;28;19916;-74
2022/10/16 11:40:48;;;;;;;;;;;20.40;60.30;;;;;;5051252;28;19912;-75
2022/10/16 11:43:16;;;;;;;;;;;20.40;60.20;;;;;;5037305;28;19919;-75
2022/10/16 11:45:46;;;;;;;;;;;20.40;60.20;;;;;;5020572;28;19959;-75
2022/10/16 11:48:18;;;;;;;;;;;20.40;60.20;;;;;;5036930;28;19908;-75
2022/10/16 11:50:54;;;;;;;;;;;20.40;60.50;;;;;;5054850;28;19924;-74
2022/10/16 11:53:38;;;;;;;;;;;20.40;60.50;;;;;;5037231;28;19919;-75
2022/10/16 11:56:03;;;;;;;;;;;20.40;61.30;;;;;;5054700;28;19915;-74
2022/10/16 11:58:38;;;;;;;;;;;20.30;61.20;;;;;;5036928;28;20375;-74
2022/10/16 12:01:11;;;;;;;;;;;20.30;60.50;;;;;;5054797;28;19919;-74
2022/10/16 12:03:37;;;;;;;;;;;20.40;60.80;;;;;;5041691;28;20284;-74
2022/10/16 12:06:13;;;;;;;;;;;20.30;60.70;;;;;;5054486;28;19921;-75
2022/10/16 12:08:39;;;;;;;;;;;20.30;60.50;;;;;;5020549;28;20379;-74
2022/10/16 12:11:08;;;;;;;;;;;20.40;60.60;;;;;;5019804;28;19917;-74
2022/10/16 12:13:35;;;;;;;;;;;20.40;60.70;;;;;;5020388;28;19913;-74
2022/10/16 12:16:08;;;;;;;;;;;20.40;60.60;;;;;;5036678;28;20261;-74
2022/10/16 12:18:33;;;;;;;;;;;20.40;60.70;;;;;;5033840;28;19991;-74
2022/10/16 12:21:04;;;;;;;;;;;20.50;60.40;;;;;;5016780;28;20335;-74
2022/10/16 12:23:29;;;;;;;;;;;20.50;60.40;;;;;;5041144;28;20289;-74
2022/10/16 12:25:56;;;;;;;;;;;20.50;60.10;;;;;;5016223;28;19916;-74
2022/10/16 12:28:22;;;;;;;;;;;20.50;59.90;;;;;;5016646;28;19959;-74
2022/10/16 12:31:00;;;;;;;;;;;20.60;60.10;;;;;;5016497;28;19921;-74
2022/10/16 12:33:29;;;;;;;;;;;20.60;59.90;;;;;;5033968;28;19909;-74
2022/10/16 12:35:55;;;;;;;;;;;20.60;59.90;;;;;;5016593;28;20004;-75
2022/10/16 12:38:21;;;;;;;;;;;20.70;59.80;;;;;;5040559;28;20353;-74
2022/10/16 12:41:14;;;;;;;;;;;20.70;59.80;;;;;;5035938;28;19996;-74
2022/10/16 12:43:42;;;;;;;;;;;20.70;59.80;;;;;;5036268;28;19987;-74
2022/10/16 12:46:10;;;;;;;;;;;20.70;59.90;;;;;;5053897;28;19932;-75
2022/10/16 12:48:36;;;;;;;;;;;20.70;60.00;;;;;;5053705;28;19909;-75
2022/10/16 12:51:11;;;;;;;;;;;20.70;59.90;;;;;;5019432;28;19912;-75
2022/10/16 12:53:36;;;;;;;;;;;20.70;59.60;;;;;;5035653;28;20003;-75
2022/10/16 12:56:04;;;;;;;;;;;20.70;59.70;;;;;;5050119;28;20035;-74
2022/10/16 12:58:43;;;;;;;;;;;20.70;59.80;;;;;;5016046;28;19963;-74
2022/10/16 13:01:08;;;;;;;;;;;20.70;59.80;;;;;;5015926;28;19919;-74
2022/10/16 13:03:52;;;;;;;;;;;20.70;59.70;;;;;;5033620;28;20268;-74
2022/10/16 13:06:18;;;;;;;;;;;20.70;59.90;;;;;;5033340;28;19925;-74
2022/10/16 13:08:59;;;;;;;;;;;20.70;59.80;;;;;;5042026;28;19912;-74
2022/10/16 13:11:27;;;;;;;;;;;20.70;59.60;;;;;;5053264;28;19917;-74
2022/10/16 13:14:05;;;;;;;;;;;20.70;59.60;;;;;;5035658;28;19916;-74
2022/10/16 13:16:38;;;;;;;;;;;20.70;59.90;;;;;;5035528;28;19921;-74
2022/10/16 13:19:04;;;;;;;;;;;20.80;60.00;;;;;;5035533;28;20395;-74
2022/10/16 13:21:35;;;;;;;;;;;20.70;59.70;;;;;;5053152;28;19909;-74
2022/10/16 13:24:01;;;;;;;;;;;20.80;59.70;;;;;;5053040;28;20415;-75
2022/10/16 13:26:53;;;;;;;;;;;20.80;59.80;;;;;;5035238;28;19909;-74
2022/10/16 13:29:18;;;;;;;;;;;20.70;59.80;;;;;;5029589;28;19909;-74
2022/10/16 13:31:44;;;;;;;;;;;20.80;59.80;;;;;;5052758;28;19919;-75
2022/10/16 13:34:12;;;;;;;;;;;20.80;59.80;;;;;;5035371;28;19916;-74
2022/10/16 13:36:45;;;;;;;;;;;20.80;59.90;;;;;;5035295;28;20261;-74
2022/10/16 13:39:10;;;;;;;;;;;20.70;60.00;;;;;;5052694;28;19952;-74
2022/10/16 13:41:35;;;;;;;;;;;20.70;59.80;;;;;;5053026;28;19974;-74
2022/10/16 13:44:01;;;;;;;;;;;20.70;59.60;;;;;;5035053;28;19913;-74
2022/10/16 13:46:26;;;;;;;;;;;20.70;59.80;;;;;;5040625;28;20051;-74
2022/10/16 13:48:59;;;;;;;;;;;20.70;59.80;;;;;;5015364;28;20270;-74
2022/10/16 13:51:24;;;;;;;;;;;20.60;59.90;;;;;;5015125;28;19988;-74
2022/10/16 13:53:49;;;;;;;;;;;20.70;60.20;;;;;;5032909;28;19959;-74
2022/10/16 13:56:19;;;;;;;;;;;20.70;60.00;;;;;;5032294;28;20383;-74
2022/10/16 13:58:45;;;;;;;;;;;20.70;59.80;;;;;;5015282;28;19932;-74
2022/10/16 14:01:17;;;;;;;;;;;20.80;59.70;;;;;;5015013;28;20345;-74
2022/10/16 14:03:43;;;;;;;;;;;20.70;59.50;;;;;;5014329;28;19995;-74
2022/10/16 14:06:13;;;;;;;;;;;20.70;59.70;;;;;;5014731;28;19960;-74
2022/10/16 14:08:41;;;;;;;;;;;20.70;59.50;;;;;;5023747;28;20359;-74
2022/10/16 14:11:06;;;;;;;;;;;20.80;59.80;;;;;;5034016;28;19912;-74
2022/10/16 14:13:52;;;;;;;;;;;20.80;59.80;;;;;;5034354;28;19916;-74
2022/10/16 14:16:18;;;;;;;;;;;20.80;59.70;;;;;;5051776;28;19966;-74
2022/10/16 14:18:45;;;;;;;;;;;20.80;59.50;;;;;;5031254;28;19953;-74
2022/10/16 14:21:14;;;;;;;;;;;20.80;59.60;;;;;;5014609;28;20067;-74